This is the latest recevied weather packets stored in our database for station/object CW79215. If no packets are shown the sender has not sent any weather packets the latest 10 day(s).
| Time | Temp. | Humidity | Pressure | Rain* | Wind** | Luminosity | Snow |
|---|---|---|---|---|---|---|---|
| 1777189025 | 18.33° C | 33% | 1025.8 hPa | - | - | - | - |
| 1777188125 | 17.78° C | 31% | 1025.9 hPa | - | - | - | - |
| 1777187225 | 16.67° C | 34% | 1026 hPa | - | - | - | - |
| 1777186324 | 13.89° C | 37% | 1026.1 hPa | - | - | - | - |
| 1777185433 | 13.89° C | 41% | 1026.1 hPa | - | - | - | - |
| 1777184533 | 12.78° C | 46% | 1026.2 hPa | - | - | - | - |
| 1777183633 | 10° C | 52% | 1026.1 hPa | - | - | - | - |
| 1777182733 | 8.33° C | 56% | 1026.2 hPa | - | - | - | - |
| 1777181833 | 7.22° C | 58% | 1026.2 hPa | - | - | - | - |
| 1777180933 | 6.67° C | 61% | 1026.2 hPa | - | - | - | - |
| 1777180033 | 5° C | 65% | 1026.1 hPa | - | - | - | - |
| 1777179132 | 5.56° C | 64% | 1026 hPa | - | - | - | - |
| 1777178232 | 5° C | 67% | 1025.9 hPa | - | - | - | - |
| 1777177332 | 5.56° C | 66% | 1025.9 hPa | - | - | - | - |
| 1777176432 | 5° C | 67% | 1025.7 hPa | - | - | - | - |
| 1777175532 | 5.56° C | 67% | 1025.6 hPa | - | - | - | - |
| 1777174632 | 5.56° C | 66% | 1025.5 hPa | - | - | - | - |
| 1777173732 | 5.56° C | 66% | 1025.4 hPa | - | - | - | - |
| 1777172832 | 5.56° C | 67% | 1025.2 hPa | - | - | - | - |
| 1777171932 | 5.56° C | 66% | 1025 hPa | - | - | - | - |
| 1777171032 | 5.56° C | 66% | 1025 hPa | - | - | - | - |
| 1777170132 | 6.11° C | 65% | 1024.9 hPa | - | - | - | - |
| 1777169231 | 6.11° C | 64% | 1025 hPa | - | - | - | - |
| 1777168331 | 6.67° C | 64% | 1024.9 hPa | - | - | - | - |
| 1777167431 | 6.11° C | 64% | 1024.8 hPa | - | - | - | - |
* Rain since midnight (hover to see other rain measurements)
** Current wind speed in m/s (hover to see current wind gust speed)